Time;durP1;ratioP1;P1;durP2;ratioP2;P2;SDS_P1;SDS_P2;PMS_P1;PMS_P2;Temp;Humidity;BMP_temperature;BMP_pressure;BME280_temperature;BME280_humidity;BME280_pressure;Samples;Min_cycle;Max_cycle;Signal;HPM_P1;HPM_P2
2023/07/23 00:00:33;;;;;;;4.67;3.40;;;19.10;71.30;;;;;;5053972;28;20529;-69
2023/07/23 00:03:04;;;;;;;4.90;3.53;;;19.00;71.40;;;;;;5054152;28;20439;-70
2023/07/23 00:05:31;;;;;;;7.73;4.37;;;19.00;71.40;;;;;;5054633;28;20422;-69
2023/07/23 00:07:59;;;;;;;5.60;3.53;;;19.00;71.40;;;;;;5054317;28;20553;-70
2023/07/23 00:10:27;;;;;;;5.80;3.90;;;18.90;71.50;;;;;;5053886;28;20466;-70
2023/07/23 00:12:54;;;;;;;5.13;3.90;;;18.80;71.90;;;;;;5052640;28;20519;-69
2023/07/23 00:15:22;;;;;;;4.50;2.97;;;18.80;72.20;;;;;;5034205;28;20497;-70
2023/07/23 00:17:49;;;;;;;5.50;3.67;;;18.80;72.20;;;;;;5033900;28;20515;-70
2023/07/23 00:20:16;;;;;;;8.03;3.60;;;18.80;72.20;;;;;;5034175;28;20470;-70
2023/07/23 00:22:43;;;;;;;6.80;4.67;;;18.80;72.30;;;;;;5034695;28;20453;-70
2023/07/23 00:25:10;;;;;;;8.13;4.27;;;18.70;72.30;;;;;;5053769;28;20986;-70
2023/07/23 00:27:37;;;;;;;6.73;4.43;;;18.70;72.70;;;;;;5054098;28;20872;-69
2023/07/23 00:30:06;;;;;;;7.70;4.43;;;18.70;72.70;;;;;;5053930;28;20494;-70
2023/07/23 00:32:35;;;;;;;5.83;3.93;;;18.70;72.90;;;;;;5053941;28;20533;-70
2023/07/23 00:35:02;;;;;;;6.47;4.03;;;18.60;73.10;;;;;;5033933;28;20467;-70
2023/07/23 00:37:31;;;;;;;5.47;3.47;;;18.50;73.10;;;;;;5033800;28;20565;-70
2023/07/23 00:39:58;;;;;;;5.50;3.67;;;18.50;73.30;;;;;;5033886;28;20810;-69
2023/07/23 00:42:25;;;;;;;5.93;3.70;;;18.40;73.70;;;;;;5033583;28;20471;-70
2023/07/23 00:44:52;;;;;;;9.00;4.00;;;18.40;74.00;;;;;;5051897;28;20521;-70
2023/07/23 00:47:20;;;;;;;5.70;4.50;;;18.40;74.10;;;;;;5053354;28;20447;-70
2023/07/23 00:49:48;;;;;;;6.53;3.90;;;18.30;74.10;;;;;;5053361;28;20524;-70
2023/07/23 00:52:16;;;;;;;6.90;3.60;;;18.30;74.30;;;;;;5053196;28;20520;-69
2023/07/23 00:54:43;;;;;;;10.53;3.50;;;18.30;74.40;;;;;;5053181;28;20860;-69
2023/07/23 00:57:11;;;;;;;4.97;4.07;;;18.20;74.50;;;;;;5052633;28;20553;-69
2023/07/23 00:59:39;;;;;;;5.17;3.23;;;18.10;74.90;;;;;;5053158;28;20484;-71
2023/07/23 01:02:06;;;;;;;6.63;3.47;;;18.10;75.40;;;;;;5053371;28;20437;-70
2023/07/23 01:04:34;;;;;;;5.30;3.57;;;18.10;75.70;;;;;;5052789;28;20468;-69
2023/07/23 01:07:06;;;;;;;10.33;3.60;;;18.20;75.70;;;;;;5053066;28;20476;-70
2023/07/23 01:09:33;;;;;;;4.63;3.40;;;18.10;75.70;;;;;;5053311;28;20465;-70
2023/07/23 01:12:00;;;;;;;6.17;3.33;;;18.00;75.80;;;;;;5052969;28;20444;-70
2023/07/23 01:14:27;;;;;;;5.17;3.87;;;18.00;76.10;;;;;;5052833;28;20967;-70
2023/07/23 01:16:57;;;;;;;5.00;3.33;;;18.00;75.90;;;;;;5052819;28;20916;-70
2023/07/23 01:19:26;;;;;;;5.43;3.63;;;18.00;75.80;;;;;;5052858;28;21050;-69
2023/07/23 01:21:58;;;;;;;6.73;4.40;;;18.00;76.00;;;;;;5053031;28;20937;-70
2023/07/23 01:24:25;;;;;;;7.87;3.90;;;17.90;76.10;;;;;;5053032;28;20461;-69
2023/07/23 01:26:52;;;;;;;5.77;3.40;;;17.90;76.40;;;;;;5053258;28;20527;-70
2023/07/23 01:29:19;;;;;;;4.80;3.17;;;17.90;76.90;;;;;;5053263;28;20836;-70
2023/07/23 01:31:46;;;;;;;5.57;3.40;;;17.90;77.10;;;;;;5052914;28;20518;-69
2023/07/23 01:34:14;;;;;;;6.50;3.50;;;17.90;76.90;;;;;;5052893;28;20477;-70
2023/07/23 01:36:41;;;;;;;5.63;3.67;;;17.90;76.70;;;;;;5053215;28;20458;-70
2023/07/23 01:39:10;;;;;;;4.53;2.97;;;17.90;76.50;;;;;;5053078;28;20568;-70
2023/07/23 01:41:37;;;;;;;6.03;3.37;;;17.80;76.50;;;;;;5053079;28;20469;-69
2023/07/23 01:44:06;;;;;;;5.10;3.37;;;17.80;76.40;;;;;;5052523;28;20468;-69
2023/07/23 01:46:33;;;;;;;5.40;3.87;;;17.80;76.60;;;;;;5052206;28;20517;-70
2023/07/23 01:49:00;;;;;;;4.20;2.80;;;17.70;76.50;;;;;;5052733;28;20990;-70
2023/07/23 01:51:27;;;;;;;5.33;3.97;;;17.70;76.50;;;;;;5052202;28;20469;-69
2023/07/23 01:53:54;;;;;;;8.60;4.27;;;17.60;76.70;;;;;;5052921;28;20525;-69
2023/07/23 01:56:23;;;;;;;7.07;3.70;;;17.50;77.60;;;;;;5052877;28;20496;-70
2023/07/23 01:58:50;;;;;;;7.07;3.43;;;17.40;77.90;;;;;;5052575;28;20556;-70
2023/07/23 02:01:17;;;;;;;5.83;3.80;;;17.40;78.30;;;;;;5052728;28;20536;-69
2023/07/23 02:03:44;;;;;;;5.47;3.37;;;17.40;78.80;;;;;;5053142;28;20477;-70
2023/07/23 02:06:11;;;;;;;5.70;3.67;;;17.30;79.10;;;;;;5056397;28;20491;-69
2023/07/23 02:08:38;;;;;;;5.77;3.13;;;17.30;80.10;;;;;;5056102;28;20544;-69
2023/07/23 02:11:06;;;;;;;9.30;4.13;;;17.30;79.50;;;;;;5055908;28;20443;-70
2023/07/23 02:13:34;;;;;;;3.97;2.90;;;17.20;79.30;;;;;;5056170;28;20528;-70
2023/07/23 02:16:02;;;;;;;8.10;3.10;;;17.20;79.40;;;;;;5056438;28;20523;-69
2023/07/23 02:18:29;;;;;;;4.37;3.00;;;17.20;79.60;;;;;;5055989;28;20477;-69
2023/07/23 02:20:56;;;;;;;6.60;3.80;;;17.30;79.60;;;;;;5055843;28;20951;-70
2023/07/23 02:23:24;;;;;;;5.83;3.53;;;17.30;79.50;;;;;;5056298;28;20528;-70
2023/07/23 02:25:57;;;;;;;9.23;4.47;;;17.20;79.20;;;;;;5055954;28;21006;-69
2023/07/23 02:28:24;;;;;;;4.10;2.90;;;17.20;79.30;;;;;;5055887;28;20520;-70
2023/07/23 02:30:58;;;;;;;5.40;3.30;;;17.20;79.20;;;;;;5054701;28;20465;-70
2023/07/23 02:33:25;;;;;;;4.83;3.60;;;17.10;78.90;;;;;;5054344;28;20426;-70
2023/07/23 02:35:52;;;;;;;8.17;3.90;;;17.10;78.70;;;;;;5055350;28;20445;-70
2023/07/23 02:38:19;;;;;;;5.90;3.37;;;17.00;79.30;;;;;;5055862;28;20555;-69
2023/07/23 02:40:46;;;;;;;4.60;3.47;;;17.00;80.00;;;;;;5055768;28;20461;-70
2023/07/23 02:43:13;;;;;;;5.27;3.20;;;17.00;80.10;;;;;;5055592;28;20944;-70
2023/07/23 02:45:40;;;;;;;5.20;3.30;;;16.90;80.00;;;;;;5055788;28;20471;-70
2023/07/23 02:48:09;;;;;;;8.17;3.67;;;16.90;80.30;;;;;;5055520;28;20479;-70
2023/07/23 02:50:36;;;;;;;4.50;3.10;;;16.90;80.60;;;;;;5055422;28;20441;-70
2023/07/23 02:53:05;;;;;;;5.10;3.10;;;16.90;80.90;;;;;;5055164;28;20491;-69
2023/07/23 02:55:32;;;;;;;5.93;4.00;;;16.90;81.10;;;;;;5055337;28;20445;-70
2023/07/23 02:58:00;;;;;;;4.73;2.77;;;16.90;80.70;;;;;;5054383;28;20475;-70
2023/07/23 03:00:28;;;;;;;7.83;4.30;;;16.80;80.40;;;;;;5055671;28;20511;-70
2023/07/23 03:02:55;;;;;;;6.20;3.40;;;16.80;81.00;;;;;;5055209;28;20446;-69
2023/07/23 03:05:24;;;;;;;4.13;2.63;;;16.80;81.70;;;;;;5055143;28;20734;-70
2023/07/23 03:07:52;;;;;;;6.63;3.70;;;16.70;80.70;;;;;;5055090;28;20447;-70
2023/07/23 03:10:20;;;;;;;6.50;3.30;;;16.70;80.70;;;;;;5054977;28;20884;-70
2023/07/23 03:12:47;;;;;;;6.47;3.20;;;16.60;81.20;;;;;;5055351;28;20547;-69
2023/07/23 03:15:13;;;;;;;4.97;3.00;;;16.60;81.40;;;;;;5054926;28;20523;-70
2023/07/23 03:17:40;;;;;;;6.33;3.80;;;16.60;81.60;;;;;;5054782;28;20525;-70
2023/07/23 03:20:10;;;;;;;5.70;3.50;;;16.50;81.70;;;;;;5055304;28;20468;-70
2023/07/23 03:22:39;;;;;;;6.07;3.53;;;16.50;81.80;;;;;;5054880;28;20437;-69
2023/07/23 03:25:06;;;;;;;4.67;3.50;;;16.50;81.70;;;;;;5055117;28;20444;-70
2023/07/23 03:27:33;;;;;;;4.70;3.37;;;16.50;81.90;;;;;;5055324;28;20516;-70
2023/07/23 03:30:00;;;;;;;6.37;3.53;;;16.50;82.40;;;;;;5054051;28;21002;-69
2023/07/23 03:32:27;;;;;;;9.07;4.67;;;16.40;82.90;;;;;;5055023;28;20551;-70
2023/07/23 03:34:54;;;;;;;6.00;3.63;;;16.40;83.50;;;;;;5054723;28;20528;-69
2023/07/23 03:37:21;;;;;;;5.30;3.97;;;16.30;83.90;;;;;;5054661;28;20484;-69
2023/07/23 03:39:50;;;;;;;5.23;3.40;;;16.30;83.90;;;;;;5054781;28;20512;-70
2023/07/23 03:42:17;;;;;;;7.90;4.00;;;16.30;84.10;;;;;;5054568;28;20548;-69
2023/07/23 03:44:44;;;;;;;6.07;3.70;;;16.40;84.30;;;;;;5054736;28;20474;-70
2023/07/23 03:47:14;;;;;;;6.60;4.03;;;16.40;84.30;;;;;;5054765;28;20447;-70
2023/07/23 03:49:41;;;;;;;5.50;2.80;;;16.40;84.10;;;;;;5054713;28;20472;-70
2023/07/23 03:52:08;;;;;;;7.53;3.40;;;16.40;83.60;;;;;;5053932;28;20472;-70
2023/07/23 03:54:36;;;;;;;4.73;3.20;;;16.40;82.80;;;;;;5054609;28;20524;-69
2023/07/23 03:57:05;;;;;;;6.90;3.90;;;16.40;82.90;;;;;;5054753;28;20516;-70
2023/07/23 03:59:36;;;;;;;6.60;3.57;;;16.40;83.10;;;;;;5054030;28;20559;-69
2023/07/23 04:02:03;;;;;;;6.70;3.67;;;16.40;83.80;;;;;;5054106;28;20425;-69
2023/07/23 04:04:30;;;;;;;5.30;3.43;;;16.30;84.10;;;;;;5053293;28;20795;-70
2023/07/23 04:06:59;;;;;;;4.20;2.47;;;16.40;84.50;;;;;;5053324;28;20483;-69
2023/07/23 04:09:26;;;;;;;6.87;3.70;;;16.40;84.00;;;;;;5054095;28;20596;-69
2023/07/23 04:11:53;;;;;;;9.50;4.37;;;16.40;83.50;;;;;;5054263;28;20473;-70
2023/07/23 04:14:21;;;;;;;5.67;3.63;;;16.30;84.20;;;;;;5053894;28;20473;-69
2023/07/23 04:16:48;;;;;;;5.50;3.17;;;16.30;83.80;;;;;;5053489;28;20468;-69
2023/07/23 04:19:16;;;;;;;5.23;3.13;;;16.20;84.20;;;;;;5054062;28;20920;-71
2023/07/23 04:21:43;;;;;;;9.67;3.77;;;16.20;84.60;;;;;;5054188;28;20527;-70
2023/07/23 04:24:10;;;;;;;5.50;3.30;;;16.10;84.80;;;;;;5053997;28;20520;-69
2023/07/23 04:26:37;;;;;;;4.17;3.17;;;16.10;84.60;;;;;;5053439;28;20540;-69
2023/07/23 04:29:04;;;;;;;8.30;3.30;;;16.10;85.30;;;;;;5053332;28;20523;-70
2023/07/23 04:31:32;;;;;;;4.90;4.03;;;16.10;86.00;;;;;;5053546;28;20527;-69
2023/07/23 04:33:59;;;;;;;8.03;3.30;;;16.10;86.10;;;;;;5053864;28;20537;-69
2023/07/23 04:36:28;;;;;;;6.00;3.30;;;16.20;85.80;;;;;;5053993;28;20525;-70
2023/07/23 04:38:55;;;;;;;5.13;3.00;;;16.30;85.40;;;;;;5053868;28;20823;-69
2023/07/23 04:41:21;;;;;;;5.10;3.23;;;16.30;85.00;;;;;;5053317;28;20437;-69
2023/07/23 04:43:48;;;;;;;4.63;3.23;;;16.30;84.90;;;;;;5053682;28;20516;-70
2023/07/23 04:46:15;;;;;;;6.20;3.53;;;16.30;85.20;;;;;;5053724;28;20526;-70
2023/07/23 04:48:43;;;;;;;6.57;3.40;;;16.40;85.70;;;;;;5053719;28;20482;-69
2023/07/23 04:51:11;;;;;;;5.80;3.43;;;16.30;85.90;;;;;;5053749;28;20436;-69
2023/07/23 04:53:38;;;;;;;7.10;3.70;;;16.40;86.40;;;;;;5052967;28;20867;-69
2023/07/23 04:56:06;;;;;;;4.90;3.33;;;16.20;87.00;;;;;;5053241;28;21003;-69
2023/07/23 04:58:33;;;;;;;7.00;3.03;;;16.20;87.40;;;;;;5053511;28;20508;-69
2023/07/23 05:01:07;;;;;;;5.10;3.33;;;16.20;87.50;;;;;;5049954;28;20524;-70
2023/07/23 05:03:34;;;;;;;5.07;3.17;;;16.30;87.20;;;;;;5052474;28;20468;-69
2023/07/23 05:06:04;;;;;;;5.10;2.90;;;16.50;86.30;;;;;;5052196;28;20526;-69
2023/07/23 05:08:32;;;;;;;4.50;2.87;;;16.60;86.30;;;;;;5053048;28;20515;-69
2023/07/23 05:11:01;;;;;;;8.00;3.17;;;16.70;87.00;;;;;;5052817;28;20552;-69
2023/07/23 05:13:29;;;;;;;4.87;3.37;;;16.90;87.70;;;;;;5052315;28;20452;-69
2023/07/23 05:15:56;;;;;;;6.30;4.53;;;17.00;88.10;;;;;;5051798;28;20962;-69
2023/07/23 05:18:24;;;;;;;4.67;3.63;;;17.10;88.60;;;;;;5051344;28;20571;-69
2023/07/23 05:20:51;;;;;;;11.63;3.07;;;17.30;88.90;;;;;;5052595;28;20785;-69
2023/07/23 05:23:20;;;;;;;5.63;3.90;;;17.40;88.40;;;;;;5052609;28;20531;-70
2023/07/23 05:25:47;;;;;;;4.10;3.10;;;17.40;83.80;;;;;;5052658;28;20526;-69
2023/07/23 05:28:14;;;;;;;5.40;3.03;;;17.40;81.10;;;;;;5052372;28;20520;-69
2023/07/23 05:30:41;;;;;;;5.10;3.60;;;17.50;81.00;;;;;;5052216;28;20513;-71
2023/07/23 05:33:09;;;;;;;4.93;2.90;;;17.50;80.50;;;;;;5052574;28;20517;-69
2023/07/23 05:35:36;;;;;;;5.70;4.13;;;17.60;80.70;;;;;;5052649;28;20444;-70
2023/07/23 05:38:08;;;;;;;5.10;2.80;;;17.70;80.80;;;;;;5054233;28;20438;-69
2023/07/23 05:40:36;;;;;;;4.73;2.70;;;17.70;80.10;;;;;;5056278;28;20433;-69
2023/07/23 05:43:09;;;;;;;5.00;3.10;;;17.80;79.60;;;;;;5056218;28;20440;-69
2023/07/23 05:45:38;;;;;;;7.37;2.90;;;17.90;80.10;;;;;;5055772;28;20442;-75
2023/07/23 05:48:06;;;;;;;5.50;3.20;;;18.00;80.40;;;;;;5056158;28;20445;-69
2023/07/23 05:50:33;;;;;;;7.50;4.33;;;18.20;81.10;;;;;;5055668;28;20468;-69
2023/07/23 05:53:00;;;;;;;5.87;3.33;;;18.30;81.20;;;;;;5055835;28;20465;-69
2023/07/23 05:55:27;;;;;;;5.63;3.80;;;18.40;81.80;;;;;;5056244;28;20476;-70
2023/07/23 05:57:57;;;;;;;5.20;3.57;;;18.40;82.10;;;;;;5055773;28;20482;-69
2023/07/23 06:00:24;;;;;;;4.93;3.53;;;18.50;81.80;;;;;;5055326;28;20484;-69
2023/07/23 06:02:51;;;;;;;6.93;4.37;;;18.60;82.00;;;;;;5055773;28;20446;-69
2023/07/23 06:05:18;;;;;;;4.47;2.83;;;18.80;82.00;;;;;;5055884;28;20437;-69
2023/07/23 06:07:45;;;;;;;4.67;3.13;;;18.90;82.50;;;;;;5056174;28;20521;-69
2023/07/23 06:10:13;;;;;;;6.40;3.30;;;19.10;83.50;;;;;;5055916;28;20548;-69
2023/07/23 06:12:57;;;;;;;4.53;2.80;;;19.20;83.00;;;;;;5055611;28;20450;-69
2023/07/23 06:15:24;;;;;;;8.60;3.20;;;19.20;82.40;;;;;;5055035;28;21024;-69
2023/07/23 06:17:51;;;;;;;6.30;3.30;;;19.40;82.40;;;;;;5055903;28;20521;-69
2023/07/23 06:20:18;;;;;;;5.20;3.00;;;19.50;82.00;;;;;;5055410;28;21019;-69
2023/07/23 06:22:45;;;;;;;5.83;3.63;;;19.50;81.70;;;;;;5054009;28;20520;-69
2023/07/23 06:25:12;;;;;;;5.80;3.73;;;19.60;81.50;;;;;;5055097;28;20529;-69
2023/07/23 06:27:39;;;;;;;5.47;3.00;;;19.70;79.70;;;;;;5054122;28;20522;-69
2023/07/23 06:30:09;;;;;;;4.80;3.17;;;19.80;80.10;;;;;;5055152;28;20485;-69
2023/07/23 06:32:36;;;;;;;4.60;2.73;;;19.80;79.80;;;;;;5055392;28;21009;-69
2023/07/23 06:35:04;;;;;;;5.03;2.77;;;19.90;79.60;;;;;;5055522;28;20515;-69
2023/07/23 06:37:31;;;;;;;4.47;3.13;;;20.00;79.30;;;;;;5055115;28;20447;-70
2023/07/23 06:39:58;;;;;;;4.77;2.90;;;20.00;79.00;;;;;;5053125;28;20562;-69
2023/07/23 06:42:25;;;;;;;6.00;3.70;;;20.00;80.10;;;;;;5053839;28;21011;-69
2023/07/23 06:44:52;;;;;;;5.43;2.93;;;20.10;80.40;;;;;;5054753;28;20885;-69
2023/07/23 06:47:21;;;;;;;6.20;3.57;;;20.20;80.80;;;;;;5054847;28;20940;-69
2023/07/23 06:49:48;;;;;;;4.50;3.23;;;20.30;81.10;;;;;;5053678;28;20539;-68
2023/07/23 06:52:15;;;;;;;4.40;3.27;;;20.50;81.10;;;;;;5054940;28;20427;-69
2023/07/23 06:54:42;;;;;;;5.77;3.07;;;20.60;81.30;;;;;;5055224;28;20435;-68
2023/07/23 06:57:10;;;;;;;6.03;3.00;;;20.70;81.40;;;;;;5054769;28;20523;-69
2023/07/23 06:59:41;;;;;;;4.73;3.23;;;20.80;80.10;;;;;;5054646;28;21061;-69
2023/07/23 07:02:08;;;;;;;6.33;3.50;;;20.90;79.70;;;;;;5054653;28;20429;-69
2023/07/23 07:04:37;;;;;;;6.33;3.90;;;20.90;79.70;;;;;;5054405;28;20517;-70
2023/07/23 07:07:04;;;;;;;3.97;3.00;;;21.00;80.20;;;;;;5054601;28;20517;-69
2023/07/23 07:09:31;;;;;;;5.83;3.27;;;21.20;81.00;;;;;;5054542;28;20558;-69
2023/07/23 07:11:59;;;;;;;4.57;2.90;;;21.30;81.40;;;;;;5051677;28;20859;-69
2023/07/23 07:14:26;;;;;;;4.97;2.97;;;21.50;81.30;;;;;;5054211;28;20443;-69
2023/07/23 07:16:52;;;;;;;3.57;2.47;;;21.60;79.80;;;;;;5054594;28;20531;-69
2023/07/23 07:19:19;;;;;;;5.50;2.90;;;21.70;78.80;;;;;;5054678;28;20899;-69
2023/07/23 07:21:49;;;;;;;9.50;4.00;;;21.80;78.00;;;;;;5054471;28;20531;-69
2023/07/23 07:24:17;;;;;;;7.23;3.07;;;22.00;78.90;;;;;;5054486;28;20527;-69
2023/07/23 07:26:44;;;;;;;6.97;3.40;;;22.20;79.90;;;;;;5054230;28;20476;-70
2023/07/23 07:29:11;;;;;;;3.60;2.93;;;22.40;77.60;;;;;;5054198;28;20486;-69
2023/07/23 07:31:39;;;;;;;4.57;3.20;;;22.60;77.70;;;;;;5054005;28;20528;-69
2023/07/23 07:34:06;;;;;;;5.73;3.17;;;22.70;75.50;;;;;;5053646;28;20508;-69
2023/07/23 07:36:33;;;;;;;5.90;2.87;;;22.80;75.40;;;;;;5053843;28;20528;-68
2023/07/23 07:39:02;;;;;;;5.13;2.93;;;22.90;74.60;;;;;;5054130;28;20536;-68
2023/07/23 07:41:29;;;;;;;4.80;3.20;;;23.00;73.90;;;;;;5054197;28;20465;-69
2023/07/23 07:43:56;;;;;;;4.93;3.43;;;23.10;75.10;;;;;;5053483;28;20537;-69
2023/07/23 07:46:24;;;;;;;5.60;3.77;;;23.30;76.30;;;;;;5054158;28;20480;-69
2023/07/23 07:48:51;;;;;;;4.37;2.90;;;23.40;76.30;;;;;;5053994;28;20445;-70
2023/07/23 07:51:17;;;;;;;5.93;3.40;;;23.60;76.40;;;;;;5053873;28;20963;-69
2023/07/23 07:53:44;;;;;;;6.90;2.80;;;23.80;75.80;;;;;;5053038;28;20523;-69
2023/07/23 07:56:17;;;;;;;4.67;3.10;;;23.90;71.30;;;;;;5053078;28;20518;-69
2023/07/23 07:58:50;;;;;;;4.93;2.80;;;24.10;68.90;;;;;;5053804;28;20437;-70
2023/07/23 08:01:19;;;;;;;5.50;2.73;;;24.20;68.70;;;;;;5052842;28;20556;-69
2023/07/23 08:03:48;;;;;;;4.20;2.80;;;24.30;66.50;;;;;;5051902;28;20539;-70
2023/07/23 08:06:18;;;;;;;4.73;3.13;;;24.40;66.70;;;;;;5052992;28;20520;-69
2023/07/23 08:08:47;;;;;;;5.87;2.90;;;24.50;65.60;;;;;;5053650;28;20469;-69
2023/07/23 08:11:15;;;;;;;4.20;2.80;;;24.60;64.50;;;;;;5053520;28;20465;-69
2023/07/23 08:13:43;;;;;;;3.87;2.60;;;24.70;62.40;;;;;;5053589;28;20472;-70
2023/07/23 08:16:13;;;;;;;5.00;3.23;;;24.80;63.00;;;;;;5053544;28;20503;-71
2023/07/23 08:18:40;;;;;;;6.17;3.27;;;24.90;59.90;;;;;;5049629;28;20487;-72
2023/07/23 08:21:08;;;;;;;6.80;3.70;;;25.00;58.80;;;;;;5050141;28;20563;-70
2023/07/23 08:23:36;;;;;;;4.90;2.70;;;25.10;58.30;;;;;;5052044;28;20528;-70
2023/07/23 08:26:05;;;;;;;4.97;3.00;;;25.10;59.10;;;;;;5050513;28;20474;-69
2023/07/23 08:28:39;;;;;;;3.80;2.20;;;25.20;58.10;;;;;;5053061;28;20445;-69
2023/07/23 08:31:06;;;;;;;5.20;2.10;;;25.40;57.70;;;;;;5053149;28;20525;-69
2023/07/23 08:33:34;;;;;;;3.63;2.50;;;25.60;57.60;;;;;;5052323;28;20568;-69
2023/07/23 08:36:02;;;;;;;4.30;2.77;;;25.70;57.00;;;;;;5053120;28;20445;-70
2023/07/23 08:38:29;;;;;;;4.00;2.47;;;25.70;55.80;;;;;;5053031;28;20471;-70
2023/07/23 08:40:58;;;;;;;4.50;2.43;;;25.80;55.70;;;;;;5052591;28;20511;-70
2023/07/23 08:43:59;;;;;;;4.00;3.10;;;26.00;55.20;;;;;;5053511;28;20786;-70
2023/07/23 08:46:27;;;;;;;5.80;2.73;;;26.10;54.90;;;;;;5053527;28;20445;-70
2023/07/23 08:49:09;;;;;;;5.43;2.90;;;26.10;50.20;;;;;;5053862;28;20836;-70
2023/07/23 08:51:42;;;;;;;4.60;3.03;;;26.10;50.10;;;;;;5053915;28;20563;-70
2023/07/23 08:54:10;;;;;;;3.97;2.67;;;26.20;50.50;;;;;;5053008;28;20856;-70
2023/07/23 08:56:39;;;;;;;4.40;2.70;;;26.20;49.90;;;;;;5053050;28;20499;-70
2023/07/23 08:59:08;;;;;;;4.90;3.20;;;26.40;50.20;;;;;;5053483;28;20528;-70
2023/07/23 09:01:35;;;;;;;4.83;2.90;;;26.60;49.90;;;;;;5053632;28;20841;-71
2023/07/23 09:04:04;;;;;;;4.20;2.80;;;26.80;47.00;;;;;;5047961;28;20516;-67
2023/07/23 09:06:32;;;;;;;8.30;3.70;;;26.80;42.30;;;;;;5053635;28;20539;-68
2023/07/23 09:09:07;;;;;;;4.97;2.97;;;26.90;44.40;;;;;;5051885;28;20979;-68
2023/07/23 09:11:34;;;;;;;6.70;2.90;;;27.10;45.90;;;;;;5053459;28;20528;-67
2023/07/23 09:14:03;;;;;;;5.63;3.63;;;27.20;42.90;;;;;;5052824;28;20528;-68
2023/07/23 09:16:31;;;;;;;6.43;3.47;;;27.20;38.70;;;;;;5052943;28;20969;-68
2023/07/23 09:18:58;;;;;;;5.50;3.40;;;27.40;40.80;;;;;;5053278;28;20520;-67
2023/07/23 09:21:26;;;;;;;7.77;2.97;;;27.50;37.90;;;;;;5052981;28;20552;-67
2023/07/23 09:23:54;;;;;;;5.00;3.30;;;27.60;39.90;;;;;;5053403;28;20537;-68
2023/07/23 09:26:23;;;;;;;7.20;3.97;;;27.70;39.70;;;;;;5052972;28;20955;-68
2023/07/23 09:28:52;;;;;;;6.73;3.20;;;27.70;37.70;;;;;;5053220;28;20433;-68
2023/07/23 09:31:29;;;;;;;5.20;3.10;;;27.70;39.60;;;;;;5052903;28;20434;-67
2023/07/23 09:33:59;;;;;;;4.73;3.17;;;27.80;41.00;;;;;;5053286;28;20433;-67
2023/07/23 09:36:27;;;;;;;5.70;3.20;;;27.90;40.00;;;;;;5053269;28;20525;-67
2023/07/23 09:38:59;;;;;;;5.93;3.87;;;28.00;38.40;;;;;;5053246;28;20524;-67
2023/07/23 09:41:31;;;;;;;4.90;3.23;;;28.00;38.50;;;;;;5053212;28;20461;-67
2023/07/23 09:44:02;;;;;;;4.10;2.90;;;28.10;39.70;;;;;;5052956;28;20947;-67
2023/07/23 09:46:30;;;;;;;6.40;4.00;;;28.10;39.60;;;;;;5053061;28;20426;-67
2023/07/23 09:48:58;;;;;;;5.97;3.47;;;28.20;40.20;;;;;;5053177;28;20526;-68
2023/07/23 09:51:26;;;;;;;6.00;3.63;;;28.30;39.60;;;;;;5053147;28;20544;-67
2023/07/23 09:53:53;;;;;;;5.53;3.80;;;28.40;39.30;;;;;;5053083;28;20441;-67
2023/07/23 09:56:22;;;;;;;6.17;3.60;;;28.50;38.60;;;;;;5053010;28;20469;-70
2023/07/23 09:58:50;;;;;;;7.07;4.37;;;28.60;38.20;;;;;;5053172;28;20437;-67
2023/07/23 10:01:18;;;;;;;7.23;4.20;;;28.70;38.20;;;;;;5052482;28;20975;-68
2023/07/23 10:03:45;;;;;;;6.53;4.50;;;28.80;37.60;;;;;;5052689;28;20473;-67
2023/07/23 10:06:15;;;;;;;5.50;4.03;;;28.90;36.10;;;;;;5052951;28;20516;-68
2023/07/23 10:08:44;;;;;;;7.83;4.23;;;29.00;35.70;;;;;;5053000;28;20464;-67
2023/07/23 10:11:11;;;;;;;6.70;4.60;;;29.10;36.50;;;;;;5052831;28;20508;-68
2023/07/23 10:13:40;;;;;;;5.83;4.03;;;29.20;35.10;;;;;;5053155;28;20519;-67
2023/07/23 10:16:10;;;;;;;5.87;4.40;;;29.30;34.40;;;;;;5052476;28;20520;-67
2023/07/23 10:18:40;;;;;;;9.73;5.20;;;29.30;35.00;;;;;;5052838;28;20539;-67
2023/07/23 10:21:09;;;;;;;6.47;3.90;;;29.30;36.00;;;;;;5052853;28;20461;-67
2023/07/23 10:23:40;;;;;;;7.10;4.40;;;29.40;35.50;;;;;;5052884;28;20468;-67
2023/07/23 10:26:23;;;;;;;13.20;4.30;;;29.50;35.00;;;;;;5056092;28;20424;-67
2023/07/23 10:28:51;;;;;;;6.37;4.03;;;29.60;35.70;;;;;;5055673;28;20514;-68
2023/07/23 10:31:22;;;;;;;5.73;3.83;;;29.70;35.20;;;;;;5056163;28;20445;-67
2023/07/23 10:33:50;;;;;;;6.70;4.70;;;29.70;33.50;;;;;;5056232;28;20495;-68
2023/07/23 10:36:19;;;;;;;8.53;4.63;;;29.80;35.20;;;;;;5055830;28;20437;-67
2023/07/23 10:38:48;;;;;;;5.93;4.47;;;29.90;36.00;;;;;;5056125;28;20433;-67
2023/07/23 10:41:14;;;;;;;6.90;5.37;;;30.10;35.90;;;;;;5056019;28;20512;-68
2023/07/23 10:43:48;;;;;;;7.60;4.80;;;30.10;34.20;;;;;;5055863;28;20444;-67
2023/07/23 10:46:17;;;;;;;6.30;4.30;;;30.20;34.30;;;;;;5056091;28;20448;-68
2023/07/23 10:48:48;;;;;;;9.13;4.67;;;30.30;33.20;;;;;;5056007;28;20529;-68
2023/07/23 10:51:15;;;;;;;8.47;4.80;;;30.30;34.30;;;;;;5055705;28;20915;-67
2023/07/23 10:53:53;;;;;;;7.90;4.60;;;30.40;33.70;;;;;;5055892;28;20540;-68
2023/07/23 10:56:26;;;;;;;6.50;4.80;;;30.50;32.70;;;;;;5055885;28;20442;-68
2023/07/23 10:58:58;;;;;;;8.70;5.27;;;30.50;32.40;;;;;;5055736;28;20425;-69
2023/07/23 11:01:27;;;;;;;7.87;5.40;;;30.50;33.80;;;;;;5055349;28;20491;-68
2023/07/23 11:03:58;;;;;;;8.73;4.87;;;30.60;33.40;;;;;;5055285;28;20434;-68
2023/07/23 11:06:30;;;;;;;5.37;3.80;;;30.60;31.50;;;;;;5055332;28;20911;-68
2023/07/23 11:08:59;;;;;;;9.77;5.07;;;30.60;31.80;;;;;;5055228;28;20476;-68
2023/07/23 11:11:38;;;;;;;10.63;4.70;;;30.70;32.70;;;;;;5055702;28;20457;-67
2023/07/23 11:14:17;;;;;;;7.30;4.70;;;30.80;32.80;;;;;;5055205;28;20883;-67
2023/07/23 11:16:45;;;;;;;6.97;5.40;;;30.90;31.90;;;;;;5055102;28;20421;-67
2023/07/23 11:19:12;;;;;;;6.87;5.23;;;31.10;33.60;;;;;;5055499;28;20499;-68
2023/07/23 11:21:45;;;;;;;7.70;5.23;;;31.20;34.20;;;;;;5055417;28;20522;-69
2023/07/23 11:24:12;;;;;;;7.67;3.90;;;31.30;33.20;;;;;;5055422;28;20525;-68
2023/07/23 11:26:41;;;;;;;6.73;5.17;;;31.40;32.00;;;;;;5055282;28;20620;-68
2023/07/23 11:29:08;;;;;;;7.40;4.67;;;31.50;31.00;;;;;;5054973;28;20429;-68
2023/07/23 11:31:35;;;;;;;8.17;5.37;;;31.50;31.60;;;;;;5055103;28;20524;-67
2023/07/23 11:34:02;;;;;;;6.47;4.60;;;31.40;32.50;;;;;;5055164;28;20524;-67
2023/07/23 11:36:30;;;;;;;6.93;5.03;;;31.50;32.50;;;;;;5054600;28;20524;-68
2023/07/23 11:38:57;;;;;;;7.33;5.10;;;31.50;32.00;;;;;;5054688;28;20524;-68
2023/07/23 11:41:28;;;;;;;8.10;4.50;;;31.60;30.90;;;;;;5054924;28;20547;-68
2023/07/23 11:43:57;;;;;;;7.17;5.40;;;31.60;30.60;;;;;;5054678;28;20896;-67
2023/07/23 11:46:24;;;;;;;6.80;4.53;;;31.50;28.30;;;;;;5054531;28;20947;-67
2023/07/23 11:48:54;;;;;;;10.53;4.67;;;31.40;28.20;;;;;;5054785;28;20437;-68
2023/07/23 11:51:21;;;;;;;7.43;4.83;;;31.40;28.40;;;;;;5054773;28;20442;-67
2023/07/23 11:53:51;;;;;;;7.30;4.63;;;31.40;29.50;;;;;;5054335;28;20463;-67
2023/07/23 11:56:22;;;;;;;7.80;4.97;;;31.40;30.00;;;;;;5054562;28;20445;-67
2023/07/23 11:58:49;;;;;;;7.23;5.03;;;31.40;30.10;;;;;;5054366;28;20509;-67
2023/07/23 12:01:18;;;;;;;10.43;6.20;;;31.40;30.60;;;;;;5054350;28;20585;-67
2023/07/23 12:03:46;;;;;;;6.87;4.70;;;31.50;30.60;;;;;;5054537;28;20445;-67
2023/07/23 12:06:15;;;;;;;7.00;4.70;;;31.60;31.20;;;;;;5054656;28;20529;-67
2023/07/23 12:08:43;;;;;;;9.07;5.37;;;31.70;31.30;;;;;;5053870;28;20524;-68
2023/07/23 12:11:11;;;;;;;7.53;5.40;;;31.90;32.20;;;;;;5054460;28;20521;-68
2023/07/23 12:13:46;;;;;;;7.77;5.50;;;32.10;31.50;;;;;;5054562;28;20523;-67
2023/07/23 12:16:32;;;;;;;8.87;5.73;;;32.30;30.40;;;;;;5054193;28;20512;-67
2023/07/23 12:19:02;;;;;;;7.60;4.83;;;32.40;30.90;;;;;;5054003;28;20758;-67
2023/07/23 12:21:29;;;;;;;6.13;4.70;;;32.40;29.60;;;;;;5054418;28;20462;-67
2023/07/23 12:23:56;;;;;;;13.53;4.90;;;32.30;29.40;;;;;;5053890;28;20468;-67
2023/07/23 12:26:23;;;;;;;9.03;5.00;;;32.30;28.70;;;;;;5053821;28;21011;-68
2023/07/23 12:28:50;;;;;;;7.90;4.87;;;32.30;28.40;;;;;;5054093;28;20480;-67
2023/07/23 12:31:18;;;;;;;11.70;5.00;;;32.40;30.00;;;;;;5054006;28;20861;-67
2023/07/23 12:33:45;;;;;;;7.70;5.80;;;32.40;31.40;;;;;;5054002;28;20436;-68
2023/07/23 12:36:12;;;;;;;9.37;5.30;;;32.50;31.10;;;;;;5053603;28;20533;-67
2023/07/23 12:38:39;;;;;;;7.73;5.60;;;32.60;30.30;;;;;;5053607;28;20434;-70
2023/07/23 12:41:06;;;;;;;6.47;4.83;;;32.60;30.50;;;;;;5053582;28;20989;-68
2023/07/23 12:43:36;;;;;;;6.90;5.07;;;32.60;31.00;;;;;;5053640;28;20441;-68
2023/07/23 12:46:03;;;;;;;6.73;4.90;;;32.60;29.40;;;;;;5053406;28;20433;-69
2023/07/23 12:48:31;;;;;;;6.60;4.93;;;32.50;30.10;;;;;;5052954;28;20531;-68
2023/07/23 12:50:58;;;;;;;6.10;5.10;;;32.50;30.60;;;;;;5053768;28;20533;-70